createdAt,value
2018-02-21T00:02:06.490Z,73.50
2018-02-21T00:04:33.925Z,73.40
2018-02-21T00:07:02.301Z,73.40
2018-02-21T00:09:30.536Z,73.50
2018-02-21T00:11:57.968Z,73.50
2018-02-21T00:14:25.458Z,73.50
2018-02-21T00:16:52.901Z,73.60
2018-02-21T00:19:20.340Z,73.60
2018-02-21T00:21:47.933Z,73.70
2018-02-21T00:24:15.414Z,73.80
2018-02-21T00:26:42.871Z,73.90
2018-02-21T00:29:11.077Z,74.10
2018-02-21T00:31:38.581Z,74.00
2018-02-21T00:34:06.023Z,74.10
2018-02-21T00:36:33.508Z,74.10
2018-02-21T00:39:01.099Z,74.00
2018-02-21T00:41:29.513Z,74.80
2018-02-21T00:43:56.966Z,74.00
2018-02-21T00:46:24.440Z,74.10
2018-02-21T00:48:51.883Z,74.20
2018-02-21T00:51:19.321Z,74.30
2018-02-21T00:53:46.957Z,74.30
2018-02-21T00:56:33.173Z,74.40
2018-02-21T00:59:00.914Z,74.30
2018-02-21T01:01:29.310Z,74.30
2018-02-21T01:03:57.520Z,74.10
2018-02-21T01:06:24.963Z,74.00
2018-02-21T01:08:52.560Z,74.10
2018-02-21T01:11:20.973Z,74.20
2018-02-21T01:13:49.196Z,74.00
2018-02-21T01:16:16.640Z,73.90
2018-02-21T01:18:44.328Z,73.90
2018-02-21T01:21:11.793Z,73.70
2018-02-21T01:23:39.228Z,73.70
2018-02-21T01:26:06.757Z,73.70
2018-02-21T01:28:34.215Z,73.70
2018-02-21T01:31:01.681Z,73.80
2018-02-21T01:33:29.121Z,73.90
2018-02-21T01:35:57.348Z,73.90
2018-02-21T01:38:24.788Z,74.00
2018-02-21T01:40:52.281Z,73.90
2018-02-21T01:43:19.721Z,74.00
2018-02-21T01:45:47.188Z,74.10
2018-02-21T01:48:14.629Z,74.20
2018-02-21T01:50:52.104Z,74.10
2018-02-21T01:53:19.547Z,74.20
2018-02-21T01:55:47.101Z,74.20
2018-02-21T01:58:14.545Z,74.20
2018-02-21T02:00:42.784Z,74.20
2018-02-21T02:03:10.405Z,74.10
2018-02-21T02:05:37.871Z,74.30
2018-02-21T02:08:06.080Z,74.50
2018-02-21T02:10:33.679Z,74.40
2018-02-21T02:13:01.886Z,74.70
2018-02-21T02:15:29.396Z,74.50
2018-02-21T02:17:56.836Z,74.60
2018-02-21T02:20:24.300Z,74.60
2018-02-21T02:23:06.538Z,74.70
2018-02-21T02:25:34.949Z,74.90
2018-02-21T02:28:02.384Z,74.80
2018-02-21T02:30:29.822Z,74.90
2018-02-21T02:32:58.105Z,74.80
2018-02-21T02:35:26.310Z,74.70
2018-02-21T02:37:53.796Z,74.70
2018-02-21T02:40:21.264Z,74.70
2018-02-21T02:42:48.741Z,74.70
2018-02-21T02:45:16.966Z,74.70
2018-02-21T02:47:44.413Z,74.70
2018-02-21T02:50:12.006Z,74.60
2018-02-21T02:52:39.452Z,74.50
2018-02-21T02:55:07.318Z,74.50
2018-02-21T02:57:34.764Z,74.60
2018-02-21T03:00:02.226Z,74.60
2018-02-21T03:02:34.893Z,74.60
2018-02-21T03:05:02.336Z,74.70
2018-02-21T03:07:30.125Z,74.70
2018-02-21T03:09:58.297Z,74.90
2018-02-21T03:12:25.749Z,74.90
2018-02-21T03:14:53.357Z,75.00
2018-02-21T03:17:20.830Z,75.00
2018-02-21T03:19:49.040Z,75.10
2018-02-21T03:22:29.208Z,75.00
2018-02-21T03:24:56.653Z,75.00
2018-02-21T03:27:24.253Z,75.00
2018-02-21T03:29:51.693Z,75.00
2018-02-21T03:32:21.961Z,75.00
2018-02-21T03:34:50.173Z,75.00
2018-02-21T03:37:17.685Z,75.00
2018-02-21T03:39:45.899Z,75.70
2018-02-21T03:42:13.564Z,75.00
2018-02-21T03:44:41.022Z,75.00
2018-02-21T03:47:08.456Z,75.00
2018-02-21T03:49:36.692Z,75.20
2018-02-21T03:52:04.160Z,75.20
2018-02-21T03:54:31.596Z,75.20
2018-02-21T03:57:05.420Z,75.10
2018-02-21T03:59:32.892Z,75.00
2018-02-21T04:02:01.185Z,75.00
2018-02-21T04:04:29.415Z,75.10
2018-02-21T04:06:56.888Z,75.10
2018-02-21T04:09:24.337Z,75.10
2018-02-21T04:11:51.784Z,75.30
2018-02-21T04:14:20.499Z,76.10
2018-02-21T04:16:47.948Z,75.50
2018-02-21T04:19:15.405Z,75.50
2018-02-21T04:21:42.892Z,75.60
2018-02-21T04:24:11.102Z,75.60
2018-02-21T04:26:38.566Z,75.60
2018-02-21T04:29:06.009Z,75.60
2018-02-21T04:31:33.626Z,75.70
2018-02-21T04:34:01.840Z,76.20
2018-02-21T04:36:29.278Z,75.70
2018-02-21T04:39:01.560Z,75.90
2018-02-21T04:41:29.001Z,75.90
2018-02-21T04:43:57.213Z,75.90
2018-02-21T04:46:24.808Z,75.80
2018-02-21T04:48:52.249Z,75.90
2018-02-21T04:51:19.712Z,76.00
2018-02-21T04:53:47.210Z,75.90
2018-02-21T04:56:21.109Z,76.10
2018-02-21T04:58:54.305Z,76.10
2018-02-21T05:01:22.710Z,76.10
2018-02-21T05:03:55.157Z,76.10
2018-02-21T05:06:23.385Z,76.20
2018-02-21T05:08:50.825Z,76.20
2018-02-21T05:11:18.404Z,76.30
2018-02-21T05:13:45.846Z,76.20
2018-02-21T05:16:13.284Z,76.30
2018-02-21T05:18:41.195Z,76.30
2018-02-21T05:21:08.641Z,76.30
2018-02-21T05:23:36.071Z,76.40
2018-02-21T05:26:03.532Z,76.30
2018-02-21T05:28:30.969Z,76.40
2018-02-21T05:30:59.612Z,76.40
2018-02-21T05:33:27.056Z,76.40
2018-02-21T05:35:57.069Z,76.40
2018-02-21T05:38:24.612Z,76.50
2018-02-21T05:40:52.052Z,76.40
2018-02-21T05:43:19.518Z,76.40
2018-02-21T05:45:47.088Z,76.50
2018-02-21T05:48:14.529Z,76.50
2018-02-21T05:50:41.974Z,76.50
2018-02-21T05:53:10.717Z,76.60
2018-02-21T05:55:38.161Z,76.60
2018-02-21T05:58:05.618Z,76.60
2018-02-21T06:00:33.073Z,76.70
2018-02-21T06:03:01.277Z,76.80
2018-02-21T06:05:29.788Z,76.60
2018-02-21T06:07:57.989Z,76.70
2018-02-21T06:10:25.526Z,76.70
2018-02-21T06:12:53.741Z,77.00
2018-02-21T06:15:21.256Z,77.00
2018-02-21T06:17:49.517Z,77.00
2018-02-21T06:20:17.146Z,77.00
2018-02-21T06:22:44.685Z,77.10
2018-02-21T06:25:13.593Z,77.30
2018-02-21T06:27:41.199Z,77.50
2018-02-21T06:30:08.785Z,77.50
2018-02-21T06:32:36.236Z,77.40
2018-02-21T06:35:03.963Z,77.30
2018-02-21T06:37:31.514Z,77.30
2018-02-21T06:39:58.953Z,77.60
2018-02-21T06:42:27.407Z,77.40
2018-02-21T06:44:54.964Z,77.50
2018-02-21T06:47:22.412Z,77.40
2018-02-21T06:49:49.921Z,77.40
2018-02-21T06:52:17.369Z,77.60
2018-02-21T06:54:44.841Z,77.90
2018-02-21T06:57:12.284Z,77.90
2018-02-21T06:59:39.928Z,77.80
2018-02-21T07:02:09.373Z,77.80
2018-02-21T07:04:36.816Z,77.80
2018-02-21T07:07:06.816Z,77.80
2018-02-21T07:09:34.285Z,77.80
2018-02-21T07:12:01.720Z,77.60
2018-02-21T07:14:29.281Z,77.60
2018-02-21T07:16:56.736Z,77.50
2018-02-21T07:19:24.182Z,77.50
2018-02-21T07:21:57.817Z,77.70
2018-02-21T07:24:25.265Z,77.60
2018-02-21T07:26:52.728Z,77.70
2018-02-21T07:29:20.821Z,77.70
2018-02-21T07:31:48.263Z,77.80
2018-02-21T07:34:15.710Z,77.80
2018-02-21T07:36:43.276Z,77.90
2018-02-21T07:39:10.741Z,77.70
2018-02-21T07:41:38.209Z,77.80
2018-02-21T07:44:09.762Z,77.70
2018-02-21T07:46:37.185Z,77.70
2018-02-21T07:49:04.656Z,77.60
2018-02-21T07:51:32.421Z,77.60
2018-02-21T07:53:59.868Z,77.60
2018-02-21T07:56:27.314Z,77.60
2018-02-21T07:58:54.873Z,77.60
2018-02-21T08:01:22.314Z,77.50
2018-02-21T08:03:49.780Z,77.40
2018-02-21T08:06:24.017Z,77.50
2018-02-21T08:08:51.466Z,77.50
2018-02-21T08:11:18.929Z,77.40
2018-02-21T08:13:46.387Z,77.40
2018-02-21T08:16:13.960Z,77.40
2018-02-21T08:18:41.409Z,77.20
2018-02-21T08:21:08.976Z,77.10
2018-02-21T08:23:36.418Z,77.10
2018-02-21T08:26:04.612Z,76.90
2018-02-21T08:28:32.085Z,76.90
2018-02-21T08:30:59.581Z,76.70
2018-02-21T08:33:27.020Z,76.70
2018-02-21T08:35:55.240Z,76.50
2018-02-21T08:38:22.853Z,76.50
2018-02-21T08:40:50.300Z,76.40
2018-02-21T08:43:17.818Z,76.40
2018-02-21T08:45:45.300Z,76.40
2018-02-21T08:48:12.740Z,76.30
2018-02-21T08:50:40.191Z,76.10
2018-02-21T08:53:08.898Z,76.10
2018-02-21T08:55:37.697Z,76.00
2018-02-21T08:58:05.141Z,75.90
2018-02-21T09:00:32.577Z,75.70
2018-02-21T09:03:00.085Z,75.20
2018-02-21T09:05:27.564Z,75.20
2018-02-21T09:07:55.765Z,74.90
2018-02-21T09:10:23.194Z,74.90
2018-02-21T09:12:51.684Z,74.60
2018-02-21T09:15:19.118Z,74.60
2018-02-21T09:17:46.585Z,74.20
2018-02-21T09:20:15.014Z,73.90
2018-02-21T09:22:42.476Z,73.90
2018-02-21T09:25:09.917Z,74.00
2018-02-21T09:27:38.636Z,73.80
2018-02-21T09:30:06.069Z,73.60
2018-02-21T09:32:33.524Z,73.40
2018-02-21T09:35:00.988Z,73.20
2018-02-21T09:37:28.424Z,72.90
2018-02-21T09:39:56.029Z,72.70
2018-02-21T09:42:23.474Z,72.10
2018-02-21T09:44:50.935Z,72.10
2018-02-21T09:47:18.384Z,71.90
2018-02-21T09:49:45.844Z,72.00
2018-02-21T09:52:13.280Z,71.70
2018-02-21T09:54:40.813Z,71.40
2018-02-21T09:57:09.024Z,70.80
2018-02-21T09:59:37.257Z,70.70
2018-02-21T10:02:05.888Z,70.40
2018-02-21T10:04:33.384Z,70.40
2018-02-21T10:07:00.822Z,70.00
2018-02-21T10:09:31.893Z,69.80
2018-02-21T10:12:00.098Z,69.60
2018-02-21T10:14:27.609Z,69.60
2018-02-21T10:16:55.045Z,69.30
2018-02-21T10:19:22.640Z,69.10
2018-02-21T10:21:50.081Z,68.70
2018-02-21T10:24:17.560Z,68.30
2018-02-21T10:26:45.776Z,67.90
2018-02-21T10:29:14.223Z,67.80
2018-02-21T10:31:42.426Z,67.10
2018-02-21T10:34:10.935Z,67.10
2018-02-21T10:36:38.380Z,66.80
2018-02-21T10:39:05.889Z,66.40
2018-02-21T10:41:34.099Z,66.00
2018-02-21T10:44:01.537Z,66.00
2018-02-21T10:46:29.756Z,65.40
2018-02-21T10:48:57.300Z,65.30
2018-02-21T10:51:25.246Z,65.00
2018-02-21T10:53:52.681Z,65.00
2018-02-21T10:56:20.885Z,64.60
2018-02-21T10:58:52.610Z,64.60
2018-02-21T11:01:25.009Z,64.30
2018-02-21T11:03:52.669Z,64.40
2018-02-21T11:06:20.104Z,64.10
2018-02-21T11:08:48.397Z,65.00
2018-02-21T11:11:16.605Z,64.00
2018-02-21T11:13:44.060Z,64.00
2018-02-21T11:16:11.540Z,63.60
2018-02-21T11:18:39.213Z,63.40
2018-02-21T11:21:06.649Z,63.10
2018-02-21T11:23:34.151Z,62.90
2018-02-21T11:26:01.757Z,62.00
2018-02-21T11:28:32.920Z,61.50
2018-02-21T11:31:00.357Z,61.30
2018-02-21T11:33:27.793Z,61.90
2018-02-21T11:35:55.264Z,62.00
2018-02-21T11:38:22.745Z,60.90
2018-02-21T11:40:50.195Z,61.10
2018-02-21T11:43:17.641Z,60.80
2018-02-21T11:45:45.999Z,60.30
2018-02-21T11:48:13.479Z,60.30
2018-02-21T11:50:40.916Z,60.00
2018-02-21T11:53:08.357Z,59.80
2018-02-21T11:55:36.604Z,59.60
2018-02-21T11:58:04.045Z,59.50
2018-02-21T12:00:31.488Z,59.30
2018-02-21T12:02:59.089Z,59.50
2018-02-21T12:05:26.526Z,59.30
2018-02-21T12:07:54.114Z,58.90
2018-02-21T12:10:21.577Z,58.90
2018-02-21T12:12:55.113Z,58.80
2018-02-21T12:15:22.549Z,58.50
2018-02-21T12:17:50.755Z,57.90
2018-02-21T12:20:18.321Z,57.80
2018-02-21T12:22:45.789Z,57.70
2018-02-21T12:25:13.245Z,58.00
2018-02-21T12:27:40.777Z,58.20
2018-02-21T12:30:08.221Z,57.90
2018-02-21T12:32:36.444Z,58.10
2018-02-21T12:35:03.881Z,58.00
2018-02-21T12:37:31.322Z,58.30
2018-02-21T12:39:59.096Z,58.20
2018-02-21T12:42:26.537Z,58.10
2018-02-21T12:44:53.960Z,58.00
2018-02-21T12:47:21.493Z,58.50
2018-02-21T12:49:48.960Z,58.60
2018-02-21T12:52:16.401Z,57.50
2018-02-21T12:54:43.856Z,57.30
2018-02-21T12:57:11.301Z,58.00
2018-02-21T12:59:43.788Z,57.90
2018-02-21T13:02:11.221Z,57.80
2018-02-21T13:04:38.685Z,57.80
2018-02-21T13:07:07.111Z,57.80
2018-02-21T13:09:34.572Z,57.80
2018-02-21T13:12:02.036Z,58.10
2018-02-21T13:14:29.460Z,58.00
2018-02-21T13:16:57.109Z,57.80
2018-02-21T13:19:24.532Z,57.90
2018-02-21T13:21:52.740Z,57.80
2018-02-21T13:24:20.625Z,57.90
2018-02-21T13:26:48.064Z,57.70
2018-02-21T13:29:15.544Z,57.80
2018-02-21T13:31:43.009Z,57.60
2018-02-21T13:34:10.448Z,57.30
2018-02-21T13:36:37.997Z,57.20
2018-02-21T13:39:05.429Z,57.50
2018-02-21T13:41:32.920Z,57.50
2018-02-21T13:44:00.393Z,57.60
2018-02-21T13:46:27.825Z,57.70
2018-02-21T13:48:55.322Z,57.50
2018-02-21T13:51:22.790Z,57.40
2018-02-21T13:53:50.216Z,57.20
2018-02-21T13:56:17.653Z,56.90
2018-02-21T13:58:45.112Z,56.90
2018-02-21T14:01:12.832Z,57.10
2018-02-21T14:03:46.870Z,57.00
2018-02-21T14:06:14.300Z,57.00
2018-02-21T14:08:42.504Z,57.10
2018-02-21T14:11:10.001Z,57.10
2018-02-21T14:13:37.432Z,57.10
2018-02-21T14:16:05.640Z,56.70
2018-02-21T14:18:33.079Z,56.50
2018-02-21T14:21:00.564Z,57.10
2018-02-21T14:23:28.004Z,57.00
2018-02-21T14:25:55.545Z,56.70
2018-02-21T14:28:22.984Z,56.50
2018-02-21T14:30:50.420Z,56.20
2018-02-21T14:33:18.657Z,55.70
2018-02-21T14:35:46.105Z,55.70
2018-02-21T14:38:13.542Z,56.10
2018-02-21T14:40:41.068Z,56.10
2018-02-21T14:43:12.893Z,56.40
2018-02-21T14:45:40.329Z,56.40
2018-02-21T14:48:07.846Z,56.60
2018-02-21T14:50:36.055Z,56.90
2018-02-21T14:53:03.472Z,56.90
2018-02-21T14:55:31.842Z,56.80
2018-02-21T14:57:59.314Z,56.80
2018-02-21T15:00:28.490Z,56.80
2018-02-21T15:02:56.269Z,56.80
2018-02-21T15:05:24.500Z,57.40
2018-02-21T15:07:51.932Z,57.20
2018-02-21T15:10:19.529Z,57.20
2018-02-21T15:12:46.960Z,57.20
2018-02-21T15:15:14.430Z,57.50
2018-02-21T15:17:41.927Z,57.60
2018-02-21T15:20:09.353Z,57.80
2018-02-21T15:22:36.802Z,58.00
2018-02-21T15:25:04.242Z,58.10
2018-02-21T15:27:31.787Z,58.10
2018-02-21T15:29:59.212Z,58.20
2018-02-21T15:32:26.697Z,58.20
2018-02-21T15:34:54.901Z,58.60
2018-02-21T15:37:22.368Z,58.60
2018-02-21T15:39:49.837Z,58.80
2018-02-21T15:42:17.276Z,58.90
2018-02-21T15:44:44.830Z,59.00
2018-02-21T15:47:12.311Z,59.20
2018-02-21T15:49:40.705Z,59.30
2018-02-21T15:52:08.145Z,59.50
2018-02-21T15:54:35.601Z,59.50
2018-02-21T15:57:03.040Z,59.60
2018-02-21T15:59:30.711Z,59.50
2018-02-21T16:01:58.145Z,59.60
2018-02-21T16:04:25.638Z,59.50
2018-02-21T16:07:16.940Z,59.50
2018-02-21T16:09:44.402Z,59.50
2018-02-21T16:12:11.846Z,59.60
2018-02-21T16:14:40.142Z,59.80
2018-02-21T16:17:07.623Z,59.80
2018-02-21T16:19:35.885Z,59.80
2018-02-21T16:22:03.317Z,59.70
2018-02-21T16:24:30.784Z,59.80
2018-02-21T16:26:58.296Z,59.80
2018-02-21T16:29:27.487Z,59.80
2018-02-21T16:31:54.928Z,59.70
2018-02-21T16:34:22.462Z,59.70
2018-02-21T16:36:49.927Z,59.80
2018-02-21T16:39:17.376Z,59.70
2018-02-21T16:41:45.034Z,59.80
2018-02-21T16:44:15.492Z,59.90
2018-02-21T16:46:42.928Z,59.90
2018-02-21T16:49:10.600Z,59.90
2018-02-21T16:51:38.078Z,60.00
2018-02-21T16:54:12.158Z,60.00
2018-02-21T16:56:39.944Z,60.10
2018-02-21T16:59:07.377Z,60.10
2018-02-21T17:01:34.815Z,60.20
2018-02-21T17:04:07.847Z,60.20
2018-02-21T17:06:35.281Z,60.20
2018-02-21T17:09:02.726Z,60.30
2018-02-21T17:11:32.452Z,60.30
2018-02-21T17:13:59.899Z,60.40
2018-02-21T17:16:27.403Z,60.40
2018-02-21T17:18:54.841Z,60.20
2018-02-21T17:21:22.289Z,60.60
2018-02-21T17:23:49.782Z,60.50
2018-02-21T17:26:17.981Z,61.10
2018-02-21T17:28:45.417Z,60.40
2018-02-21T17:31:14.654Z,60.60
2018-02-21T17:33:42.084Z,60.40
2018-02-21T17:36:10.296Z,60.60
2018-02-21T17:38:38.279Z,60.60
2018-02-21T17:41:11.504Z,60.60
2018-02-21T17:43:41.151Z,61.40
2018-02-21T17:46:09.620Z,60.70
2018-02-21T17:48:37.084Z,60.70
2018-02-21T17:51:04.516Z,60.80
2018-02-21T17:53:32.717Z,60.80
2018-02-21T17:56:01.542Z,60.80
2018-02-21T17:58:28.977Z,60.80
2018-02-21T18:00:56.458Z,60.90
2018-02-21T18:03:23.898Z,60.90
2018-02-21T18:05:55.281Z,61.00
2018-02-21T18:08:22.755Z,61.10
2018-02-21T18:10:50.256Z,61.00
2018-02-21T18:13:17.699Z,61.20
2018-02-21T18:15:45.160Z,61.20
2018-02-21T18:18:12.629Z,61.30
2018-02-21T18:20:40.070Z,62.00
2018-02-21T18:23:07.524Z,61.30
2018-02-21T18:25:41.066Z,61.50
2018-02-21T18:28:08.502Z,61.40
2018-02-21T18:30:37.642Z,61.50
2018-02-21T18:33:05.102Z,61.50
2018-02-21T18:35:32.560Z,61.60
2018-02-21T18:38:00.002Z,61.60
2018-02-21T18:40:27.956Z,62.40
2018-02-21T18:42:55.417Z,61.90
2018-02-21T18:45:31.819Z,61.90
2018-02-21T18:48:00.033Z,62.20
2018-02-21T18:50:28.295Z,62.20
2018-02-21T18:52:55.739Z,62.10
2018-02-21T18:55:23.947Z,62.50
2018-02-21T18:57:51.622Z,62.50
2018-02-21T19:00:20.964Z,62.60
2018-02-21T19:02:48.405Z,62.60
2018-02-21T19:05:15.868Z,63.60
2018-02-21T19:07:43.308Z,62.90
2018-02-21T19:10:10.798Z,63.00
2018-02-21T19:12:45.069Z,63.00
2018-02-21T19:15:12.652Z,63.10
2018-02-21T19:17:40.110Z,63.10
2018-02-21T19:20:07.600Z,63.10
2018-02-21T19:22:35.808Z,63.30
2018-02-21T19:25:19.356Z,63.30
2018-02-21T19:27:46.802Z,63.30
2018-02-21T19:30:14.245Z,63.40
2018-02-21T19:32:41.833Z,63.60
2018-02-21T19:35:09.289Z,63.70
2018-02-21T19:37:36.734Z,63.80
2018-02-21T19:40:04.253Z,63.90
2018-02-21T19:42:31.785Z,64.00
2018-02-21T19:44:59.232Z,64.60
2018-02-21T19:47:26.673Z,64.10
2018-02-21T19:49:54.197Z,64.10
2018-02-21T19:52:22.402Z,64.30
2018-02-21T19:54:49.873Z,64.30
2018-02-21T19:57:17.316Z,64.40
2018-02-21T19:59:49.832Z,64.50
2018-02-21T20:02:17.268Z,64.40
2018-02-21T20:04:44.733Z,64.40
2018-02-21T20:07:12.182Z,64.50
2018-02-21T20:09:39.645Z,64.60
2018-02-21T20:12:07.080Z,64.70
2018-02-21T20:14:34.544Z,64.80
2018-02-21T20:17:01.993Z,65.00
2018-02-21T20:19:29.504Z,65.00
2018-02-21T20:21:57.717Z,65.90
2018-02-21T20:24:25.185Z,65.10
2018-02-21T20:26:52.745Z,65.20
2018-02-21T20:29:20.228Z,65.30
2018-02-21T20:31:51.601Z,65.30
2018-02-21T20:34:19.046Z,65.40
2018-02-21T20:36:46.613Z,65.50
2018-02-21T20:39:14.064Z,65.50
2018-02-21T20:41:41.508Z,65.60
2018-02-21T20:44:09.013Z,65.80
2018-02-21T20:46:37.222Z,65.90
2018-02-21T20:49:04.688Z,65.80
2018-02-21T20:51:32.136Z,65.90
2018-02-21T20:53:59.669Z,66.10
2018-02-21T20:56:27.149Z,66.10
2018-02-21T20:58:56.554Z,66.10
2018-02-21T21:01:23.993Z,66.20
2018-02-21T21:03:51.521Z,66.30
2018-02-21T21:06:18.960Z,66.50
2018-02-21T21:08:46.513Z,66.50
2018-02-21T21:11:14.661Z,66.70
2018-02-21T21:13:43.084Z,66.60
2018-02-21T21:16:10.548Z,66.80
2018-02-21T21:18:38.016Z,66.80
2018-02-21T21:21:06.561Z,67.00
2018-02-21T21:23:34.003Z,66.90
2018-02-21T21:26:01.447Z,66.90
2018-02-21T21:28:28.950Z,66.90
2018-02-21T21:30:56.394Z,67.00
2018-02-21T21:33:23.833Z,67.10
2018-02-21T21:35:51.336Z,67.20
2018-02-21T21:38:18.809Z,67.20
2018-02-21T21:40:47.020Z,67.50
2018-02-21T21:43:15.003Z,67.40
2018-02-21T21:45:42.443Z,67.50
2018-02-21T21:48:09.875Z,67.60
2018-02-21T21:50:42.136Z,67.70
2018-02-21T21:53:28.509Z,67.70
2018-02-21T21:55:55.954Z,67.70
2018-02-21T21:58:23.446Z,67.80
2018-02-21T22:00:58.434Z,67.90
2018-02-21T22:03:25.916Z,68.00
2018-02-21T22:05:53.363Z,68.80
2018-02-21T22:08:20.803Z,68.00
2018-02-21T22:10:48.589Z,68.20
2018-02-21T22:13:16.169Z,68.30
2018-02-21T22:15:43.612Z,68.30
2018-02-21T22:18:11.204Z,68.30
2018-02-21T22:20:39.440Z,68.50
2018-02-21T22:23:06.921Z,68.50
2018-02-21T22:25:34.372Z,68.60
2018-02-21T22:28:02.034Z,68.70
2018-02-21T22:30:29.475Z,68.80
2018-02-21T22:32:56.916Z,68.80
2018-02-21T22:35:24.386Z,68.90
2018-02-21T22:37:52.657Z,69.00
2018-02-21T22:40:20.091Z,69.00
2018-02-21T22:42:47.520Z,69.10
2018-02-21T22:45:28.249Z,69.20
2018-02-21T22:47:58.221Z,69.20
2018-02-21T22:50:25.656Z,69.20
2018-02-21T22:52:53.893Z,69.40
2018-02-21T22:55:21.341Z,69.30
2018-02-21T22:57:48.955Z,69.50
2018-02-21T23:00:19.556Z,69.50
2018-02-21T23:02:47.006Z,69.60
2018-02-21T23:05:14.581Z,69.70
2018-02-21T23:07:42.024Z,69.80
2018-02-21T23:10:09.463Z,69.80
2018-02-21T23:12:53.021Z,69.90
2018-02-21T23:15:20.462Z,69.90
2018-02-21T23:17:47.948Z,70.00
2018-02-21T23:20:18.371Z,69.90
2018-02-21T23:22:45.815Z,70.00
2018-02-21T23:25:13.305Z,70.00
2018-02-21T23:27:41.508Z,70.30
2018-02-21T23:30:08.953Z,70.20
2018-02-21T23:32:48.320Z,70.40
2018-02-21T23:35:15.766Z,70.30
2018-02-21T23:37:43.232Z,70.30
2018-02-21T23:40:10.671Z,70.30
2018-02-21T23:42:38.133Z,70.20
2018-02-21T23:45:05.576Z,70.10
2018-02-21T23:47:33.941Z,70.30
2018-02-21T23:50:01.370Z,70.30
2018-02-21T23:52:32.749Z,70.30
2018-02-21T23:55:00.960Z,70.40
2018-02-21T23:57:28.420Z,70.40
2018-02-21T23:59:55.856Z,70.50
